sensor_id;sensor_type;location;lat;lon;timestamp;P1;durP1;ratioP1;P2;durP2;ratioP2
22236;SDS011;11287;48.122;11.536;2022-07-17T10:50:18;2.17;;;1.90;;
22236;SDS011;11287;48.122;11.536;2022-07-17T10:53:06;1.95;;;1.77;;
22236;SDS011;11287;48.122;11.536;2022-07-17T10:55:39;2.25;;;1.90;;
22236;SDS011;11287;48.122;11.536;2022-07-17T10:58:22;6.18;;;1.90;;
22236;SDS011;11287;48.122;11.536;2022-07-17T11:01:00;2.20;;;1.83;;
22236;SDS011;11287;48.122;11.536;2022-07-17T11:03:30;3.60;;;2.00;;
22236;SDS011;11287;48.122;11.536;2022-07-17T11:08:57;4.10;;;2.35;;
22236;SDS011;11287;48.122;11.536;2022-07-17T11:14:23;3.97;;;1.95;;
22236;SDS011;11287;48.122;11.536;2022-07-17T11:16:54;1.70;;;1.60;;
22236;SDS011;11287;48.122;11.536;2022-07-17T11:19:24;2.05;;;1.85;;
22236;SDS011;11287;48.122;11.536;2022-07-17T11:21:51;3.83;;;1.70;;
22236;SDS011;11287;48.122;11.536;2022-07-17T11:24:17;4.93;;;1.77;;
22236;SDS011;11287;48.122;11.536;2022-07-17T11:26:42;1.88;;;1.75;;
22236;SDS011;11287;48.122;11.536;2022-07-17T11:29:09;3.38;;;1.90;;
22236;SDS011;11287;48.122;11.536;2022-07-17T11:31:34;2.00;;;1.80;;
22236;SDS011;11287;48.122;11.536;2022-07-17T11:34:01;4.40;;;1.88;;
22236;SDS011;11287;48.122;11.536;2022-07-17T11:36:33;2.30;;;1.88;;
22236;SDS011;11287;48.122;11.536;2022-07-17T11:39:09;2.53;;;1.70;;
22236;SDS011;11287;48.122;11.536;2022-07-17T11:44:04;2.90;;;1.73;;
22236;SDS011;11287;48.122;11.536;2022-07-17T11:46:31;2.65;;;1.70;;
22236;SDS011;11287;48.122;11.536;2022-07-17T11:48:58;3.65;;;2.10;;
22236;SDS011;11287;48.122;11.536;2022-07-17T11:51:43;1.58;;;1.48;;
22236;SDS011;11287;48.122;11.536;2022-07-17T11:54:12;2.38;;;1.65;;
22236;SDS011;11287;48.122;11.536;2022-07-17T11:56:39;2.05;;;1.60;;
22236;SDS011;11287;48.122;11.536;2022-07-17T11:59:05;6.63;;;2.05;;
22236;SDS011;11287;48.122;11.536;2022-07-17T12:01:43;5.05;;;1.98;;
22236;SDS011;11287;48.122;11.536;2022-07-17T12:04:10;3.20;;;2.00;;
22236;SDS011;11287;48.122;11.536;2022-07-17T12:06:36;2.75;;;1.70;;
22236;SDS011;11287;48.122;11.536;2022-07-17T12:09:02;1.90;;;1.65;;
22236;SDS011;11287;48.122;11.536;2022-07-17T12:11:28;2.20;;;1.70;;
22236;SDS011;11287;48.122;11.536;2022-07-17T12:13:53;3.17;;;1.70;;
22236;SDS011;11287;48.122;11.536;2022-07-17T12:16:19;2.63;;;1.87;;
22236;SDS011;11287;48.122;11.536;2022-07-17T12:18:55;4.35;;;2.30;;
22236;SDS011;11287;48.122;11.536;2022-07-17T12:21:22;1.80;;;1.70;;
22236;SDS011;11287;48.122;11.536;2022-07-17T12:23:56;1.80;;;1.70;;
22236;SDS011;11287;48.122;11.536;2022-07-17T12:26:27;4.38;;;1.75;;
22236;SDS011;11287;48.122;11.536;2022-07-17T12:28:52;4.88;;;1.77;;
22236;SDS011;11287;48.122;11.536;2022-07-17T12:31:17;3.33;;;1.85;;
22236;SDS011;11287;48.122;11.536;2022-07-17T12:33:44;3.20;;;1.63;;
22236;SDS011;11287;48.122;11.536;2022-07-17T12:36:10;4.70;;;1.70;;
22236;SDS011;11287;48.122;11.536;2022-07-17T12:38:35;3.27;;;1.73;;
22236;SDS011;11287;48.122;11.536;2022-07-17T12:41:00;3.63;;;1.90;;
22236;SDS011;11287;48.122;11.536;2022-07-17T12:43:26;5.28;;;1.90;;
22236;SDS011;11287;48.122;11.536;2022-07-17T12:45:51;3.90;;;2.00;;
22236;SDS011;11287;48.122;11.536;2022-07-17T12:48:17;5.38;;;1.92;;
22236;SDS011;11287;48.122;11.536;2022-07-17T12:50:42;2.07;;;1.80;;
22236;SDS011;11287;48.122;11.536;2022-07-17T12:53:07;1.73;;;1.55;;
22236;SDS011;11287;48.122;11.536;2022-07-17T12:55:33;6.30;;;2.42;;
22236;SDS011;11287;48.122;11.536;2022-07-17T12:57:59;2.20;;;2.00;;
22236;SDS011;11287;48.122;11.536;2022-07-17T13:00:24;4.17;;;1.93;;
22236;SDS011;11287;48.122;11.536;2022-07-17T13:02:49;2.47;;;1.70;;
22236;SDS011;11287;48.122;11.536;2022-07-17T13:05:15;2.55;;;1.70;;
22236;SDS011;11287;48.122;11.536;2022-07-17T13:07:40;1.63;;;1.52;;
22236;SDS011;11287;48.122;11.536;2022-07-17T13:10:05;2.70;;;1.70;;
22236;SDS011;11287;48.122;11.536;2022-07-17T13:12:31;2.58;;;1.80;;
22236;SDS011;11287;48.122;11.536;2022-07-17T13:14:56;2.38;;;2.05;;
22236;SDS011;11287;48.122;11.536;2022-07-17T13:17:22;1.85;;;1.75;;
22236;SDS011;11287;48.122;11.536;2022-07-17T13:19:48;3.50;;;1.50;;
22236;SDS011;11287;48.122;11.536;2022-07-17T13:22:13;2.40;;;1.75;;
22236;SDS011;11287;48.122;11.536;2022-07-17T13:24:39;2.85;;;2.63;;
22236;SDS011;11287;48.122;11.536;2022-07-17T13:27:04;1.50;;;1.40;;
22236;SDS011;11287;48.122;11.536;2022-07-17T13:29:29;1.70;;;1.60;;
22236;SDS011;11287;48.122;11.536;2022-07-17T13:31:55;1.80;;;1.60;;
22236;SDS011;11287;48.122;11.536;2022-07-17T13:34:21;1.63;;;1.52;;
22236;SDS011;11287;48.122;11.536;2022-07-17T13:36:46;2.75;;;1.75;;
22236;SDS011;11287;48.122;11.536;2022-07-17T13:39:12;1.98;;;1.40;;
22236;SDS011;11287;48.122;11.536;2022-07-17T13:41:38;3.42;;;1.77;;
22236;SDS011;11287;48.122;11.536;2022-07-17T13:44:04;1.80;;;1.70;;
22236;SDS011;11287;48.122;11.536;2022-07-17T13:46:30;6.38;;;1.58;;
22236;SDS011;11287;48.122;11.536;2022-07-17T13:48:55;3.08;;;1.63;;
22236;SDS011;11287;48.122;11.536;2022-07-17T13:51:20;2.27;;;1.70;;
22236;SDS011;11287;48.122;11.536;2022-07-17T13:53:46;4.45;;;1.70;;
22236;SDS011;11287;48.122;11.536;2022-07-17T13:56:11;2.20;;;1.55;;
22236;SDS011;11287;48.122;11.536;2022-07-17T13:58:36;4.47;;;1.53;;
22236;SDS011;11287;48.122;11.536;2022-07-17T14:01:02;3.85;;;1.80;;
22236;SDS011;11287;48.122;11.536;2022-07-17T14:03:28;2.75;;;1.50;;
22236;SDS011;11287;48.122;11.536;2022-07-17T14:05:53;1.85;;;1.70;;
22236;SDS011;11287;48.122;11.536;2022-07-17T14:08:18;1.95;;;1.60;;
22236;SDS011;11287;48.122;11.536;2022-07-17T14:10:44;1.65;;;1.45;;
22236;SDS011;11287;48.122;11.536;2022-07-17T14:13:09;2.22;;;1.50;;
22236;SDS011;11287;48.122;11.536;2022-07-17T14:15:35;4.40;;;1.83;;
22236;SDS011;11287;48.122;11.536;2022-07-17T14:18:01;2.20;;;1.67;;
22236;SDS011;11287;48.122;11.536;2022-07-17T14:20:27;2.42;;;1.75;;
22236;SDS011;11287;48.122;11.536;2022-07-17T14:22:52;2.75;;;1.77;;
22236;SDS011;11287;48.122;11.536;2022-07-17T14:25:17;2.10;;;1.70;;
22236;SDS011;11287;48.122;11.536;2022-07-17T14:27:43;1.53;;;1.43;;
22236;SDS011;11287;48.122;11.536;2022-07-17T14:30:08;1.77;;;1.67;;
22236;SDS011;11287;48.122;11.536;2022-07-17T14:32:34;3.50;;;1.50;;
22236;SDS011;11287;48.122;11.536;2022-07-17T14:35:00;7.17;;;1.70;;
22236;SDS011;11287;48.122;11.536;2022-07-17T14:37:25;18.85;;;2.72;;
22236;SDS011;11287;48.122;11.536;2022-07-17T14:39:51;4.07;;;1.80;;
22236;SDS011;11287;48.122;11.536;2022-07-17T14:42:16;2.27;;;1.70;;
22236;SDS011;11287;48.122;11.536;2022-07-17T14:44:42;3.53;;;1.55;;
22236;SDS011;11287;48.122;11.536;2022-07-17T14:47:08;3.92;;;1.85;;
22236;SDS011;11287;48.122;11.536;2022-07-17T14:49:33;2.75;;;1.70;;
22236;SDS011;11287;48.122;11.536;2022-07-17T14:51:59;6.87;;;1.90;;
22236;SDS011;11287;48.122;11.536;2022-07-17T14:54:24;2.08;;;1.60;;
22236;SDS011;11287;48.122;11.536;2022-07-17T14:56:49;1.55;;;1.20;;
22236;SDS011;11287;48.122;11.536;2022-07-17T14:59:15;1.40;;;1.30;;
22236;SDS011;11287;48.122;11.536;2022-07-17T15:01:40;1.58;;;1.48;;
22236;SDS011;11287;48.122;11.536;2022-07-17T15:04:06;16.02;;;2.80;;
22236;SDS011;11287;48.122;11.536;2022-07-17T15:06:31;18.13;;;2.27;;
22236;SDS011;11287;48.122;11.536;2022-07-17T15:08:56;4.30;;;1.92;;
22236;SDS011;11287;48.122;11.536;2022-07-17T15:11:22;1.93;;;1.60;;
22236;SDS011;11287;48.122;11.536;2022-07-17T15:13:47;2.20;;;2.00;;
22236;SDS011;11287;48.122;11.536;2022-07-17T15:16:12;1.73;;;1.63;;
22236;SDS011;11287;48.122;11.536;2022-07-17T15:18:37;6.37;;;1.73;;
22236;SDS011;11287;48.122;11.536;2022-07-17T15:21:03;4.22;;;1.55;;
22236;SDS011;11287;48.122;11.536;2022-07-17T15:23:28;3.72;;;1.90;;
22236;SDS011;11287;48.122;11.536;2022-07-17T15:25:54;1.67;;;1.58;;
22236;SDS011;11287;48.122;11.536;2022-07-17T15:28:19;2.30;;;2.13;;
22236;SDS011;11287;48.122;11.536;2022-07-17T15:30:44;3.20;;;2.00;;
22236;SDS011;11287;48.122;11.536;2022-07-17T15:33:10;7.13;;;1.85;;
22236;SDS011;11287;48.122;11.536;2022-07-17T15:35:35;3.85;;;1.83;;
22236;SDS011;11287;48.122;11.536;2022-07-17T15:38:01;2.55;;;1.67;;
22236;SDS011;11287;48.122;11.536;2022-07-17T15:40:26;9.73;;;2.10;;
22236;SDS011;11287;48.122;11.536;2022-07-17T15:42:51;2.90;;;1.60;;
22236;SDS011;11287;48.122;11.536;2022-07-17T15:45:17;7.55;;;1.75;;
22236;SDS011;11287;48.122;11.536;2022-07-17T15:47:46;50.65;;;3.03;;
22236;SDS011;11287;48.122;11.536;2022-07-17T15:50:12;2.72;;;1.70;;
22236;SDS011;11287;48.122;11.536;2022-07-17T15:52:37;1.65;;;1.52;;
22236;SDS011;11287;48.122;11.536;2022-07-17T15:55:03;2.90;;;1.50;;
22236;SDS011;11287;48.122;11.536;2022-07-17T15:57:28;3.40;;;1.92;;
22236;SDS011;11287;48.122;11.536;2022-07-17T15:59:53;36.97;;;3.13;;
22236;SDS011;11287;48.122;11.536;2022-07-17T16:02:19;28.40;;;2.50;;
22236;SDS011;11287;48.122;11.536;2022-07-17T16:04:44;11.10;;;2.08;;
22236;SDS011;11287;48.122;11.536;2022-07-17T16:07:09;6.30;;;1.90;;
22236;SDS011;11287;48.122;11.536;2022-07-17T16:09:35;4.35;;;1.50;;
22236;SDS011;11287;48.122;11.536;2022-07-17T16:12:01;15.38;;;2.20;;
22236;SDS011;11287;48.122;11.536;2022-07-17T16:14:26;1.67;;;1.57;;
22236;SDS011;11287;48.122;11.536;2022-07-17T16:16:51;8.23;;;2.00;;
22236;SDS011;11287;48.122;11.536;2022-07-17T16:19:16;3.87;;;1.90;;
22236;SDS011;11287;48.122;11.536;2022-07-17T16:21:42;6.95;;;1.92;;
22236;SDS011;11287;48.122;11.536;2022-07-17T16:24:07;3.28;;;1.58;;
22236;SDS011;11287;48.122;11.536;2022-07-17T16:26:33;1.88;;;1.63;;
22236;SDS011;11287;48.122;11.536;2022-07-17T16:28:58;3.10;;;1.70;;
22236;SDS011;11287;48.122;11.536;2022-07-17T16:31:23;1.70;;;1.60;;
22236;SDS011;11287;48.122;11.536;2022-07-17T16:33:49;3.63;;;1.60;;
22236;SDS011;11287;48.122;11.536;2022-07-17T16:36:14;3.63;;;1.65;;
22236;SDS011;11287;48.122;11.536;2022-07-17T16:38:39;1.97;;;1.47;;
22236;SDS011;11287;48.122;11.536;2022-07-17T16:41:05;2.90;;;1.63;;
22236;SDS011;11287;48.122;11.536;2022-07-17T16:43:33;4.85;;;1.77;;
22236;SDS011;11287;48.122;11.536;2022-07-17T16:45:58;2.38;;;1.67;;
22236;SDS011;11287;48.122;11.536;2022-07-17T16:48:24;16.42;;;2.05;;
22236;SDS011;11287;48.122;11.536;2022-07-17T16:50:49;8.57;;;1.95;;
22236;SDS011;11287;48.122;11.536;2022-07-17T16:53:15;4.63;;;2.53;;
22236;SDS011;11287;48.122;11.536;2022-07-17T16:55:40;3.38;;;1.80;;
22236;SDS011;11287;48.122;11.536;2022-07-17T16:58:06;1.80;;;1.70;;
22236;SDS011;11287;48.122;11.536;2022-07-17T17:00:32;1.90;;;1.80;;
22236;SDS011;11287;48.122;11.536;2022-07-17T17:02:59;2.92;;;1.88;;
22236;SDS011;11287;48.122;11.536;2022-07-17T17:05:26;8.45;;;1.60;;
22236;SDS011;11287;48.122;11.536;2022-07-17T17:07:51;12.50;;;1.92;;
22236;SDS011;11287;48.122;11.536;2022-07-17T17:10:16;11.60;;;2.97;;
22236;SDS011;11287;48.122;11.536;2022-07-17T17:12:42;5.73;;;2.20;;
22236;SDS011;11287;48.122;11.536;2022-07-17T17:15:07;2.00;;;1.70;;
22236;SDS011;11287;48.122;11.536;2022-07-17T17:17:33;1.98;;;1.73;;
22236;SDS011;11287;48.122;11.536;2022-07-17T17:19:58;3.23;;;1.70;;
22236;SDS011;11287;48.122;11.536;2022-07-17T17:22:24;3.50;;;1.60;;
22236;SDS011;11287;48.122;11.536;2022-07-17T17:24:49;2.50;;;1.97;;
22236;SDS011;11287;48.122;11.536;2022-07-17T17:27:15;2.20;;;2.00;;
22236;SDS011;11287;48.122;11.536;2022-07-17T17:29:40;5.05;;;1.83;;
22236;SDS011;11287;48.122;11.536;2022-07-17T17:32:05;4.10;;;2.10;;
22236;SDS011;11287;48.122;11.536;2022-07-17T17:34:31;2.45;;;1.77;;
22236;SDS011;11287;48.122;11.536;2022-07-17T17:36:56;1.97;;;1.60;;
22236;SDS011;11287;48.122;11.536;2022-07-17T17:39:21;1.70;;;1.60;;
22236;SDS011;11287;48.122;11.536;2022-07-17T17:41:47;2.17;;;2.00;;
22236;SDS011;11287;48.122;11.536;2022-07-17T17:44:12;5.47;;;2.00;;
22236;SDS011;11287;48.122;11.536;2022-07-17T17:46:37;5.45;;;3.00;;
22236;SDS011;11287;48.122;11.536;2022-07-17T17:49:03;15.52;;;2.15;;
22236;SDS011;11287;48.122;11.536;2022-07-17T17:51:28;7.85;;;2.15;;
22236;SDS011;11287;48.122;11.536;2022-07-17T17:53:54;2.70;;;2.05;;
22236;SDS011;11287;48.122;11.536;2022-07-17T17:56:19;18.15;;;2.83;;
22236;SDS011;11287;48.122;11.536;2022-07-17T17:58:45;34.67;;;6.95;;
22236;SDS011;11287;48.122;11.536;2022-07-17T18:01:10;8.60;;;2.90;;
22236;SDS011;11287;48.122;11.536;2022-07-17T18:03:35;9.63;;;2.90;;
22236;SDS011;11287;48.122;11.536;2022-07-17T18:06:01;2.70;;;2.50;;
22236;SDS011;11287;48.122;11.536;2022-07-17T18:08:26;2.42;;;1.75;;
22236;SDS011;11287;48.122;11.536;2022-07-17T18:10:54;1.80;;;1.70;;
22236;SDS011;11287;48.122;11.536;2022-07-17T18:13:20;2.10;;;1.90;;
22236;SDS011;11287;48.122;11.536;2022-07-17T18:15:45;3.93;;;1.83;;
22236;SDS011;11287;48.122;11.536;2022-07-17T18:18:10;2.28;;;2.05;;
22236;SDS011;11287;48.122;11.536;2022-07-17T18:20:36;4.32;;;2.40;;
22236;SDS011;11287;48.122;11.536;2022-07-17T18:23:01;3.92;;;1.98;;
22236;SDS011;11287;48.122;11.536;2022-07-17T18:25:27;2.40;;;2.15;;
22236;SDS011;11287;48.122;11.536;2022-07-17T18:27:52;4.05;;;2.08;;
22236;SDS011;11287;48.122;11.536;2022-07-17T18:30:18;4.55;;;1.80;;
22236;SDS011;11287;48.122;11.536;2022-07-17T18:32:43;2.33;;;2.10;;
22236;SDS011;11287;48.122;11.536;2022-07-17T18:35:09;3.25;;;2.40;;
22236;SDS011;11287;48.122;11.536;2022-07-17T18:37:34;2.10;;;2.00;;
22236;SDS011;11287;48.122;11.536;2022-07-17T18:40:00;3.15;;;2.13;;
22236;SDS011;11287;48.122;11.536;2022-07-17T18:42:25;5.47;;;2.15;;
22236;SDS011;11287;48.122;11.536;2022-07-17T18:44:51;2.35;;;2.13;;
22236;SDS011;11287;48.122;11.536;2022-07-17T18:47:16;2.90;;;1.70;;
22236;SDS011;11287;48.122;11.536;2022-07-17T18:49:42;5.07;;;1.88;;
22236;SDS011;11287;48.122;11.536;2022-07-17T18:52:07;3.40;;;2.40;;
22236;SDS011;11287;48.122;11.536;2022-07-17T18:54:32;4.55;;;1.95;;
22236;SDS011;11287;48.122;11.536;2022-07-17T18:56:58;2.97;;;1.80;;
22236;SDS011;11287;48.122;11.536;2022-07-17T18:59:24;2.20;;;1.85;;
22236;SDS011;11287;48.122;11.536;2022-07-17T19:01:51;3.45;;;1.77;;
22236;SDS011;11287;48.122;11.536;2022-07-17T19:04:16;2.90;;;2.08;;
22236;SDS011;11287;48.122;11.536;2022-07-17T19:06:42;3.60;;;2.40;;
22236;SDS011;11287;48.122;11.536;2022-07-17T19:09:07;3.35;;;2.17;;
22236;SDS011;11287;48.122;11.536;2022-07-17T19:11:33;4.45;;;2.35;;
22236;SDS011;11287;48.122;11.536;2022-07-17T19:13:59;3.55;;;2.40;;
22236;SDS011;11287;48.122;11.536;2022-07-17T19:16:24;2.30;;;2.10;;
22236;SDS011;11287;48.122;11.536;2022-07-17T19:18:53;3.40;;;2.42;;
22236;SDS011;11287;48.122;11.536;2022-07-17T19:21:19;2.88;;;2.60;;
22236;SDS011;11287;48.122;11.536;2022-07-17T19:23:44;8.93;;;2.50;;
22236;SDS011;11287;48.122;11.536;2022-07-17T19:26:09;2.40;;;2.20;;
22236;SDS011;11287;48.122;11.536;2022-07-17T19:28:35;3.47;;;2.47;;
22236;SDS011;11287;48.122;11.536;2022-07-17T19:31:01;4.57;;;2.50;;
22236;SDS011;11287;48.122;11.536;2022-07-17T19:33:26;5.20;;;2.70;;
22236;SDS011;11287;48.122;11.536;2022-07-17T19:35:52;2.65;;;2.30;;
22236;SDS011;11287;48.122;11.536;2022-07-17T19:38:17;2.60;;;2.22;;
22236;SDS011;11287;48.122;11.536;2022-07-17T19:40:42;2.95;;;2.40;;
22236;SDS011;11287;48.122;11.536;2022-07-17T19:43:08;3.50;;;2.40;;
22236;SDS011;11287;48.122;11.536;2022-07-17T19:45:33;3.20;;;2.42;;
22236;SDS011;11287;48.122;11.536;2022-07-17T19:47:59;4.32;;;2.50;;
22236;SDS011;11287;48.122;11.536;2022-07-17T19:50:24;3.55;;;2.30;;
22236;SDS011;11287;48.122;11.536;2022-07-17T19:52:49;3.13;;;2.50;;
22236;SDS011;11287;48.122;11.536;2022-07-17T19:55:15;3.20;;;2.75;;
22236;SDS011;11287;48.122;11.536;2022-07-17T19:57:41;2.78;;;2.58;;
22236;SDS011;11287;48.122;11.536;2022-07-17T20:00:07;3.83;;;2.63;;
22236;SDS011;11287;48.122;11.536;2022-07-17T20:02:33;5.90;;;2.72;;
22236;SDS011;11287;48.122;11.536;2022-07-17T20:04:58;3.20;;;2.90;;
22236;SDS011;11287;48.122;11.536;2022-07-17T20:07:24;4.65;;;3.05;;
22236;SDS011;11287;48.122;11.536;2022-07-17T20:09:50;2.35;;;2.20;;
22236;SDS011;11287;48.122;11.536;2022-07-17T20:12:16;3.85;;;2.42;;
22236;SDS011;11287;48.122;11.536;2022-07-17T20:14:41;5.93;;;2.60;;
22236;SDS011;11287;48.122;11.536;2022-07-17T20:17:07;10.43;;;7.40;;
22236;SDS011;11287;48.122;11.536;2022-07-17T20:19:32;11.35;;;6.05;;
22236;SDS011;11287;48.122;11.536;2022-07-17T20:21:57;10.05;;;3.95;;
22236;SDS011;11287;48.122;11.536;2022-07-17T20:24:23;6.57;;;3.42;;
22236;SDS011;11287;48.122;11.536;2022-07-17T20:26:48;2.78;;;2.58;;
22236;SDS011;11287;48.122;11.536;2022-07-17T20:29:13;5.82;;;3.17;;
22236;SDS011;11287;48.122;11.536;2022-07-17T20:31:39;3.28;;;2.97;;
22236;SDS011;11287;48.122;11.536;2022-07-17T20:34:04;3.85;;;2.78;;
22236;SDS011;11287;48.122;11.536;2022-07-17T20:36:30;3.40;;;2.78;;
22236;SDS011;11287;48.122;11.536;2022-07-17T20:38:55;2.92;;;2.72;;
22236;SDS011;11287;48.122;11.536;2022-07-17T20:41:21;3.85;;;2.85;;
22236;SDS011;11287;48.122;11.536;2022-07-17T20:43:47;3.35;;;3.05;;
22236;SDS011;11287;48.122;11.536;2022-07-17T20:46:16;4.35;;;2.97;;
22236;SDS011;11287;48.122;11.536;2022-07-17T20:48:43;6.93;;;3.38;;
22236;SDS011;11287;48.122;11.536;2022-07-17T20:51:09;5.65;;;3.20;;
22236;SDS011;11287;48.122;11.536;2022-07-17T20:53:35;3.38;;;2.75;;
22236;SDS011;11287;48.122;11.536;2022-07-17T20:56:00;6.22;;;3.15;;
22236;SDS011;11287;48.122;11.536;2022-07-17T20:58:26;3.75;;;2.72;;
22236;SDS011;11287;48.122;11.536;2022-07-17T21:00:52;4.25;;;3.00;;
22236;SDS011;11287;48.122;11.536;2022-07-17T21:03:20;4.00;;;3.08;;
22236;SDS011;11287;48.122;11.536;2022-07-17T21:05:45;4.80;;;2.83;;
22236;SDS011;11287;48.122;11.536;2022-07-17T21:08:14;3.13;;;2.80;;
22236;SDS011;11287;48.122;11.536;2022-07-17T21:10:40;3.35;;;3.05;;
22236;SDS011;11287;48.122;11.536;2022-07-17T21:13:05;7.00;;;3.20;;
22236;SDS011;11287;48.122;11.536;2022-07-17T21:15:31;5.80;;;3.35;;
22236;SDS011;11287;48.122;11.536;2022-07-17T21:17:56;4.85;;;2.83;;
22236;SDS011;11287;48.122;11.536;2022-07-17T21:20:21;3.75;;;2.88;;
22236;SDS011;11287;48.122;11.536;2022-07-17T21:22:47;2.65;;;2.45;;
22236;SDS011;11287;48.122;11.536;2022-07-17T21:25:12;5.47;;;2.97;;
22236;SDS011;11287;48.122;11.536;2022-07-17T21:27:38;4.03;;;2.45;;
22236;SDS011;11287;48.122;11.536;2022-07-17T21:30:06;2.90;;;2.60;;
22236;SDS011;11287;48.122;11.536;2022-07-17T21:32:32;6.75;;;2.83;;
22236;SDS011;11287;48.122;11.536;2022-07-17T21:34:57;3.50;;;2.65;;
22236;SDS011;11287;48.122;11.536;2022-07-17T21:37:22;2.88;;;2.67;;
22236;SDS011;11287;48.122;11.536;2022-07-17T21:39:49;4.35;;;2.40;;
22236;SDS011;11287;48.122;11.536;2022-07-17T21:42:14;2.92;;;2.63;;
22236;SDS011;11287;48.122;11.536;2022-07-17T21:44:39;3.58;;;2.70;;
22236;SDS011;11287;48.122;11.536;2022-07-17T21:47:05;6.07;;;2.80;;
22236;SDS011;11287;48.122;11.536;2022-07-17T21:49:30;3.17;;;2.70;;
22236;SDS011;11287;48.122;11.536;2022-07-17T21:51:55;4.05;;;2.60;;
22236;SDS011;11287;48.122;11.536;2022-07-17T21:54:20;3.88;;;2.45;;
22236;SDS011;11287;48.122;11.536;2022-07-17T21:56:46;4.43;;;2.47;;
22236;SDS011;11287;48.122;11.536;2022-07-17T21:59:11;2.90;;;2.60;;
22236;SDS011;11287;48.122;11.536;2022-07-17T22:01:37;4.55;;;2.88;;
22236;SDS011;11287;48.122;11.536;2022-07-17T22:04:02;3.15;;;2.85;;
22236;SDS011;11287;48.122;11.536;2022-07-17T22:06:28;5.95;;;3.25;;
22236;SDS011;11287;48.122;11.536;2022-07-17T22:08:54;9.43;;;5.03;;
22236;SDS011;11287;48.122;11.536;2022-07-17T22:11:19;8.15;;;3.05;;
22236;SDS011;11287;48.122;11.536;2022-07-17T22:13:45;3.45;;;2.90;;
22236;SDS011;11287;48.122;11.536;2022-07-17T22:16:11;5.38;;;2.90;;
22236;SDS011;11287;48.122;11.536;2022-07-17T22:18:36;3.85;;;2.55;;
22236;SDS011;11287;48.122;11.536;2022-07-17T22:21:02;3.15;;;2.53;;
22236;SDS011;11287;48.122;11.536;2022-07-17T22:23:27;3.47;;;2.88;;
22236;SDS011;11287;48.122;11.536;2022-07-17T22:25:53;4.32;;;2.90;;
22236;SDS011;11287;48.122;11.536;2022-07-17T22:28:20;5.75;;;2.92;;
22236;SDS011;11287;48.122;11.536;2022-07-17T22:30:45;4.53;;;3.30;;
22236;SDS011;11287;48.122;11.536;2022-07-17T22:33:10;3.97;;;3.50;;
22236;SDS011;11287;48.122;11.536;2022-07-17T22:35:36;5.40;;;3.10;;
22236;SDS011;11287;48.122;11.536;2022-07-17T22:38:01;3.55;;;3.20;;
22236;SDS011;11287;48.122;11.536;2022-07-17T22:40:27;4.40;;;2.75;;
22236;SDS011;11287;48.122;11.536;2022-07-17T22:42:52;4.70;;;3.20;;
22236;SDS011;11287;48.122;11.536;2022-07-17T22:45:17;8.63;;;2.92;;
22236;SDS011;11287;48.122;11.536;2022-07-17T22:47:43;3.40;;;2.70;;
22236;SDS011;11287;48.122;11.536;2022-07-17T22:50:08;4.65;;;2.63;;
22236;SDS011;11287;48.122;11.536;2022-07-17T22:52:34;3.67;;;2.63;;
22236;SDS011;11287;48.122;11.536;2022-07-17T22:54:59;3.72;;;2.50;;
22236;SDS011;11287;48.122;11.536;2022-07-17T22:57:24;3.72;;;2.80;;
22236;SDS011;11287;48.122;11.536;2022-07-17T22:59:50;4.20;;;2.58;;
22236;SDS011;11287;48.122;11.536;2022-07-17T23:02:15;2.95;;;2.60;;
22236;SDS011;11287;48.122;11.536;2022-07-17T23:04:41;4.57;;;2.58;;
22236;SDS011;11287;48.122;11.536;2022-07-17T23:07:06;3.92;;;2.92;;
22236;SDS011;11287;48.122;11.536;2022-07-17T23:09:32;3.63;;;2.70;;
22236;SDS011;11287;48.122;11.536;2022-07-17T23:11:57;3.75;;;3.10;;
22236;SDS011;11287;48.122;11.536;2022-07-17T23:14:23;3.90;;;2.88;;
22236;SDS011;11287;48.122;11.536;2022-07-17T23:16:48;3.60;;;2.97;;
22236;SDS011;11287;48.122;11.536;2022-07-17T23:19:13;3.28;;;2.95;;
22236;SDS011;11287;48.122;11.536;2022-07-17T23:21:39;3.10;;;2.83;;
22236;SDS011;11287;48.122;11.536;2022-07-17T23:24:04;2.95;;;2.75;;
22236;SDS011;11287;48.122;11.536;2022-07-17T23:26:29;3.63;;;3.33;;
22236;SDS011;11287;48.122;11.536;2022-07-17T23:28:55;5.60;;;3.58;;
22236;SDS011;11287;48.122;11.536;2022-07-17T23:31:20;4.68;;;3.28;;
22236;SDS011;11287;48.122;11.536;2022-07-17T23:33:46;6.85;;;3.65;;
22236;SDS011;11287;48.122;11.536;2022-07-17T23:36:12;9.43;;;5.70;;
22236;SDS011;11287;48.122;11.536;2022-07-17T23:38:37;8.73;;;5.40;;
22236;SDS011;11287;48.122;11.536;2022-07-17T23:41:03;7.43;;;5.20;;
22236;SDS011;11287;48.122;11.536;2022-07-17T23:43:28;5.22;;;4.43;;
22236;SDS011;11287;48.122;11.536;2022-07-17T23:45:53;7.20;;;4.88;;
22236;SDS011;11287;48.122;11.536;2022-07-17T23:48:22;6.88;;;4.72;;
22236;SDS011;11287;48.122;11.536;2022-07-17T23:50:47;10.38;;;4.78;;
22236;SDS011;11287;48.122;11.536;2022-07-17T23:53:12;7.70;;;4.30;;
22236;SDS011;11287;48.122;11.536;2022-07-17T23:55:38;5.32;;;4.50;;
22236;SDS011;11287;48.122;11.536;2022-07-17T23:58:03;5.00;;;3.70;;
